Date,TemperatureHighF,TemperatureAvgF,TemperatureLowF,DewpointHighF,DewpointAvgF,DewpointLowF,HumidityHigh,HumidityAvg,HumidityLow,PressureMaxIn,PressureMinIn,WindSpeedMaxMPH,WindSpeedAvgMPH,GustSpeedMaxMPH,PrecipitationSumIn
2013-7-14,96.3,86.3,77.5,73.6,70.4,66.2,83,61,43,30.01,29.94,5,1,6,0.00
2013-7-15,98.6,84.9,75.7,72.7,69.7,66.2,84,62,35,29.93,29.87,3,1,4,0.00
2013-7-16,100.9,84.6,74.3,69.3,66.7,64.0,72,57,32,29.97,29.84,6,1,7,0.00
2013-7-17,101.5,86.7,75.6,74.4,69.1,65.0,81,58,34,29.93,29.78,4,1,5,0.00
2013-7-18,102.6,88.1,77.9,74.4,71.4,67.1,80,60,36,29.81,29.70,4,2,4,0.00
2013-7-19,100.6,88.8,76.8,76.9,72.8,69.6,85,62,38,29.73,29.55,13,3,13,0.00
2013-7-20,96.3,85.1,76.6,75.1,71.2,59.6,86,64,44,29.60,29.47,8,2,9,0.00
2013-7-21,95.2,77.6,70.9,68.4,63.5,59.0,82,63,40,29.71,29.53,4,1,5,0.00
2013-7-22,88.9,74.5,67.3,69.0,66.4,64.7,95,78,48,29.69,29.55,6,1,7,0.00
2013-7-23,83.5,73.6,69.3,77.5,71.5,66.4,98,93,77,29.52,29.22,4,1,5,1.90
2013-7-24,91.6,78.6,66.4,71.9,64.9,54.7,95,65,38,29.62,29.21,6,2,10,0.01
2013-7-25,66.2,60.1,58.6,57.9,52.0,47.2,95,75,63,29.62,29.55,4,2,6,0.12
2013-7-26,71.8,65.9,59.2,66.0,62.1,58.0,99,88,77,29.57,29.47,5,1,5,0.32
2013-7-27,89.6,72.3,61.3,66.2,62.1,58.1,95,73,41,29.65,29.53,4,2,8,0.01
2013-7-28,91.4,73.9,66.4,69.9,65.9,62.8,93,78,43,29.68,29.56,4,1,7,0.04
2013-7-29,85.5,72.8,67.1,69.5,66.7,61.4,97,82,57,29.74,29.62,7,2,7,0.00
2013-7-30,88.2,74.3,66.4,61.3,56.7,53.8,73,56,33,29.76,29.69,6,2,8,0.00
2013-7-31,91.4,71.1,64.0,63.2,58.1,54.9,80,65,33,29.74,29.68,2,1,3,0.00
2013-8-1,81.0,70.0,63.9,64.8,62.8,60.9,91,79,54,29.71,29.47,6,2,8,0.01
2013-8-2,89.4,73.2,63.9,67.5,62.4,56.2,99,73,37,29.55,29.37,5,2,10,0.78
2013-8-3,86.2,72.6,65.1,64.3,61.4,58.8,92,69,43,29.51,29.39,5,2,7,0.02
2013-8-4,88.3,69.7,61.7,61.4,56.0,52.0,88,64,32,29.48,29.34,7,2,8,0.00
2013-8-5,86.5,66.9,57.2,53.7,46.4,37.2,80,52,21,29.61,29.41,6,2,8,0.00
2013-8-6,86.2,65.5,56.5,55.2,49.4,45.2,76,58,28,29.72,29.55,3,1,3,0.00
2013-8-7,86.2,71.4,60.4,59.4,55.6,49.3,89,61,29,29.75,29.66,8,2,9,0.00
2013-8-8,82.8,71.7,64.9,70.3,66.0,57.3,96,83,64,29.69,29.59,5,2,6,0.06
2013-8-9,72.5,72.1,71.8,69.3,68.3,67.8,90,88,86,29.65,29.59,5,2,7,0.00
2013-8-10,92.3,74.9,66.2,70.7,59.8,51.8,98,64,30,29.62,29.42,11,2,11,0.00
2013-8-11,87.3,70.4,59.4,57.9,53.7,48.4,78,57,34,29.67,29.57,4,2,4,0.00
2013-8-12,90.5,72.8,62.8,62.3,57.9,55.1,85,63,31,29.62,29.55,5,1,8,0.00
2013-8-13,75.6,69.8,66.7,67.4,63.7,60.0,89,81,68,29.56,29.27,4,1,5,0.02
2013-8-14,80.8,67.4,59.9,63.6,52.1,48.1,89,59,36,29.55,29.22,9,3,13,0.00
2013-8-15,86.9,68.5,55.9,53.6,51.1,48.1,82,56,31,29.69,29.47,8,2,10,0.00
2013-8-16,87.3,69.1,58.3,57.2,53.7,50.0,80,60,31,29.79,29.60,4,1,6,0.00
2013-8-17,88.9,67.9,60.6,60.1,56.6,54.4,82,69,34,29.87,29.75,3,1,3,0.00
2013-8-18,83.1,71.6,62.8,62.6,59.2,52.7,85,66,38,29.85,29.69,4,1,4,0.00
2013-8-19,85.8,74.0,62.6,62.1,59.8,57.7,86,63,45,29.67,29.57,4,2,6,0.00
2013-8-20,95.7,78.3,66.4,63.4,60.4,56.3,79,56,31,29.81,29.57,4,2,6,0.00
2013-8-21,97.0,75.9,67.1,65.6,61.7,57.9,77,63,34,29.79,29.73,3,1,4,0.00
2013-8-22,72.9,69.9,67.3,64.1,63.1,62.5,86,79,73,29.72,29.64,2,1,4,0.00
2013-8-23,84.4,72.8,64.8,68.7,55.8,50.1,90,57,36,29.73,29.46,4,1,4,0.00
2013-8-24,89.8,68.3,57.2,51.1,47.5,39.7,73,51,21,29.87,29.69,3,1,3,0.00
2013-8-25,93.2,75.0,59.7,56.4,52.0,45.6,75,48,22,29.90,29.77,5,2,8,0.00
2013-8-26,81.0,72.0,65.5,65.7,60.9,56.1,78,68,53,29.80,29.54,7,2,8,0.00
2013-8-27,94.1,77.6,68.5,71.1,67.3,63.4,98,73,43,29.59,29.42,3,1,4,0.18
2013-8-28,91.8,78.7,66.2,67.5,65.1,62.2,94,65,44,29.61,29.45,5,2,8,0.00
2013-8-29,67.1,64.0,61.9,64.6,60.4,57.0,96,88,84,29.65,29.54,4,1,4,0.00
2013-8-30,93.0,70.8,60.4,67.3,61.6,57.5,92,76,42,29.56,29.45,4,1,6,0.00
2013-8-31,80.2,74.6,69.4,72.0,70.2,66.8,95,86,76,29.46,29.40,4,2,4,0.00
2013-9-1,80.2,72.4,68.5,75.0,70.7,67.5,97,94,84,29.49,29.41,4,1,4,0.38
2013-9-2,76.6,73.5,71.2,74.9,71.6,70.2,98,94,86,29.48,29.34,4,1,4,0.52
2013-9-3,79.5,72.0,63.9,71.2,66.2,56.2,97,83,63,29.47,29.33,6,2,6,0.59
2013-9-4,90.0,70.1,60.4,58.4,55.7,50.8,87,63,28,29.56,29.34,6,2,8,0.00
2013-9-5,76.3,65.4,55.2,60.7,51.8,41.0,86,64,31,29.67,29.39,4,1,8,0.00
2013-9-6,80.8,60.0,49.1,46.2,40.4,34.6,68,51,22,29.67,29.57,4,1,7,0.00
2013-9-7,85.3,69.3,53.1,55.3,49.0,43.4,73,51,26,29.66,29.43,6,2,9,0.00
2013-9-8,65.7,65.3,64.9,55.6,55.2,54.7,71,70,69,29.42,29.41,2,1,3,0.00
2013-9-9,73.2,58.9,49.1,49.7,43.1,38.0,77,57,33,29.71,29.61,5,2,5,0.00
2013-9-10,75.6,68.2,56.3,69.9,64.4,50.1,98,88,77,29.70,29.55,7,2,9,0.07
2013-9-11,100.8,81.0,69.6,76.1,71.4,65.4,97,76,42,29.77,29.63,7,2,9,0.00
2013-9-12,90.5,77.7,67.6,72.9,69.7,65.9,98,78,51,29.66,29.36,7,3,14,0.96
2013-9-13,84.2,69.1,60.6,67.6,63.0,53.9,99,82,50,29.36,29.19,4,1,8,0.05
2013-9-14,70.3,60.9,54.9,53.9,51.2,49.3,85,71,50,29.58,29.27,5,2,6,0.00
2013-9-15,55.2,53.0,50.4,49.8,48.3,47.2,89,84,82,29.61,29.57,2,1,3,0.00
2013-9-20,86.9,69.4,54.1,56.2,53.2,49.6,87,60,30,30.00,29.93,4,1,5,0.00
2013-9-21,75.2,65.3,55.9,65.3,59.4,54.8,99,83,58,29.96,29.68,8,3,11,0.00
2013-9-22,74.7,63.6,52.2,66.6,55.3,44.1,99,77,42,29.77,29.56,6,2,11,0.70
2013-9-23,70.5,53.8,45.9,44.5,41.0,37.9,78,63,36,29.88,29.73,5,2,8,0.00
2013-9-24,73.4,54.6,43.0,44.4,40.8,38.2,84,62,30,29.84,29.60,5,2,7,0.00
2013-9-25,71.1,58.5,50.0,51.4,47.0,42.4,76,66,45,29.77,29.68,6,1,6,0.00
2013-9-26,60.4,60.4,60.4,49.8,49.8,49.8,68,68,68,29.77,29.77,1,1,2,0.00
2013-9-28,75.2,63.5,53.2,54.7,51.8,49.3,88,67,44,29.97,29.91,5,1,5,0.00
2013-9-29,78.1,57.5,48.2,54.5,47.7,39.4,99,75,29,30.01,29.81,5,1,9,0.09
2013-9-30,75.0,57.0,44.6,51.5,48.3,43.8,99,77,38,29.90,29.73,7,2,8,0.00
2013-10-1,84.9,65.8,50.0,56.4,51.0,45.6,92,63,28,29.73,29.63,9,2,11,0.00
2013-10-2,85.5,69.3,58.3,61.1,56.0,52.3,84,64,43,29.84,29.69,8,2,8,0.00
2013-10-3,83.7,67.2,58.3,54.8,49.3,42.2,75,56,27,29.97,29.84,4,2,6,0.00
2013-10-4,71.1,60.7,55.4,58.1,52.1,45.5,95,74,57,29.94,29.85,4,1,7,0.09
2013-10-5,72.0,62.7,57.9,58.1,56.6,54.2,96,81,60,29.99,29.85,5,2,7,0.00
2013-10-6,60.6,55.7,53.1,57.9,54.8,52.4,99,97,89,30.02,29.90,12,3,16,0.20
2013-10-7,76.6,64.2,55.2,69.8,60.7,52.3,99,89,68,29.90,29.62,30,6,30,0.06
2013-10-8,71.1,58.2,50.2,52.2,43.5,38.1,80,60,32,30.13,29.74,10,2,14,0.00
2013-10-9,66.0,52.3,43.3,45.4,41.8,37.6,87,69,45,30.15,30.08,9,3,12,0.00
2013-10-10,61.0,52.6,44.1,51.2,47.8,42.9,97,85,68,30.12,29.95,0,0,0,0.00
2013-10-11,74.7,58.4,47.8,54.7,46.1,30.5,99,68,28,29.94,29.86,0,0,0,0.00
2013-10-12,55.8,53.3,51.4,47.7,46.7,45.0,85,78,67,29.93,29.91,0,0,0,0.00